Time;durP1;ratioP1;P1;durP2;ratioP2;P2;SDS_P1;SDS_P2;PMS_P1;PMS_P2;Temp;Humidity;BMP_temperature;BMP_pressure;BME280_temperature;BME280_humidity;BME280_pressure;Samples;Min_cycle;Max_cycle;Signal;HPM_P1;HPM_P2
2023/04/07 00:01:53;;;;;;;16.98;7.70;;;;;;;;;;5105243;28;20489;-71
2023/04/07 00:04:19;;;;;;;11.93;7.20;;;;;;;;;;5097394;28;20055;-64
2023/04/07 00:06:45;;;;;;;15.02;8.23;;;;;;;;;;5094001;28;20036;-68
2023/04/07 00:09:10;;;;;;;17.60;10.38;;;;;;;;;;5093820;28;20036;-67
2023/04/07 00:11:36;;;;;;;35.28;14.07;;;;;;;;;;5093962;28;20110;-64
2023/04/07 00:14:02;;;;;;;42.67;16.02;;;;;;;;;;5093458;28;20024;-63
2023/04/07 00:16:27;;;;;;;34.20;13.25;;;;;;;;;;5093210;28;20087;-64
2023/04/07 00:18:53;;;;;;;34.53;12.82;;;;;;;;;;5093125;28;20120;-70
2023/04/07 00:21:18;;;;;;;33.70;12.70;;;;;;;;;;5092787;28;20241;-69
2023/04/07 00:23:45;;;;;;;34.33;13.60;;;;;;;;;;5093113;28;20024;-68
2023/04/07 00:26:10;;;;;;;42.15;14.23;;;;;;;;;;5093376;28;20116;-74
2023/04/07 00:28:36;;;;;;;36.38;14.00;;;;;;;;;;5093583;28;20530;-68
2023/04/07 00:31:01;;;;;;;29.60;12.23;;;;;;;;;;5093497;28;20074;-64
2023/04/07 00:33:27;;;;;;;27.40;10.45;;;;;;;;;;5093361;28;20022;-72
2023/04/07 00:35:53;;;;;;;22.13;11.10;;;;;;;;;;5093513;28;20035;-70
2023/04/07 00:38:18;;;;;;;21.20;10.50;;;;;;;;;;5093272;28;20028;-72
2023/04/07 00:40:44;;;;;;;26.23;10.90;;;;;;;;;;5093612;28;20040;-73
2023/04/07 00:43:10;;;;;;;21.38;10.07;;;;;;;;;;5093264;28;20490;-73
2023/04/07 00:45:35;;;;;;;22.38;9.80;;;;;;;;;;5093489;28;20043;-74
2023/04/07 00:48:01;;;;;;;18.52;9.77;;;;;;;;;;5092921;28;20020;-73
2023/04/07 00:50:26;;;;;;;19.42;10.55;;;;;;;;;;5093063;28;20424;-74
2023/04/07 00:52:53;;;;;;;25.88;11.23;;;;;;;;;;5092960;28;20039;-72
2023/04/07 00:55:19;;;;;;;27.20;9.57;;;;;;;;;;5097634;28;20023;-67
2023/04/07 00:57:45;;;;;;;24.17;10.65;;;;;;;;;;5112767;28;20385;-67
2023/04/07 01:00:11;;;;;;;21.95;9.93;;;;;;;;;;5111662;28;20465;-72
2023/04/07 01:02:49;;;;;;;20.38;10.30;;;;;;;;;;5112353;28;20106;-67
2023/04/07 01:05:28;;;;;;;21.73;10.40;;;;;;;;;;5112715;28;20050;-66
2023/04/07 01:08:14;;;;;;;18.95;10.73;;;;;;;;;;5113187;28;20393;-70
2023/04/07 01:10:40;;;;;;;23.70;10.13;;;;;;;;;;5113078;28;20042;-64
2023/04/07 01:13:15;;;;;;;17.58;10.23;;;;;;;;;;5112988;28;20074;-68
2023/04/07 01:15:43;;;;;;;18.77;10.02;;;;;;;;;;5113186;28;20023;-67
2023/04/07 01:18:19;;;;;;;22.65;9.82;;;;;;;;;;5112773;28;20024;-72
2023/04/07 01:20:49;;;;;;;18.50;10.15;;;;;;;;;;5113207;28;20019;-69
2023/04/07 01:23:24;;;;;;;20.42;10.10;;;;;;;;;;5112954;27;20145;-72
2023/04/07 01:25:59;;;;;;;22.38;11.23;;;;;;;;;;5112665;28;20028;-66
2023/04/07 01:28:42;;;;;;;24.40;11.57;;;;;;;;;;5112075;28;20027;-69
2023/04/07 01:31:11;;;;;;;23.73;10.55;;;;;;;;;;5111744;28;20024;-66
2023/04/07 01:33:38;;;;;;;28.05;9.95;;;;;;;;;;5111137;28;20046;-67
2023/04/07 01:36:06;;;;;;;65.70;20.45;;;;;;;;;;5112179;28;20027;-64
2023/04/07 01:38:32;;;;;;;25.35;11.30;;;;;;;;;;5112533;28;20016;-69
2023/04/07 01:41:00;;;;;;;19.08;9.77;;;;;;;;;;5112567;28;20023;-64
2023/04/07 01:43:27;;;;;;;24.75;11.30;;;;;;;;;;5112468;28;20080;-73
2023/04/07 01:45:54;;;;;;;35.35;13.77;;;;;;;;;;5112250;28;20035;-66
2023/04/07 01:48:20;;;;;;;28.52;12.60;;;;;;;;;;5112324;28;20073;-73
2023/04/07 01:50:46;;;;;;;71.07;20.55;;;;;;;;;;5112463;28;20471;-73
2023/04/07 01:53:14;;;;;;;56.55;19.02;;;;;;;;;;5112427;28;20331;-69
2023/04/07 01:55:40;;;;;;;36.35;14.25;;;;;;;;;;5111753;28;20027;-70
2023/04/07 01:58:06;;;;;;;30.10;13.82;;;;;;;;;;5111336;28;20023;-74
2023/04/07 02:00:33;;;;;;;43.53;15.57;;;;;;;;;;5111548;28;20437;-72
2023/04/07 02:03:06;;;;;;;38.70;14.90;;;;;;;;;;5111620;28;20080;-75
2023/04/07 02:05:35;;;;;;;27.00;12.73;;;;;;;;;;5111944;28;20147;-72
2023/04/07 02:08:04;;;;;;;28.10;13.70;;;;;;;;;;5111911;28;20062;-69
2023/04/07 02:10:33;;;;;;;33.88;13.35;;;;;;;;;;5111537;28;20319;-70
2023/04/07 02:13:00;;;;;;;33.25;15.13;;;;;;;;;;5111336;28;20108;-69
2023/04/07 02:15:27;;;;;;;34.30;15.80;;;;;;;;;;5111120;28;20016;-66
2023/04/07 02:17:55;;;;;;;26.77;14.13;;;;;;;;;;5111126;28;20111;-66
2023/04/07 02:20:21;;;;;;;25.13;13.25;;;;;;;;;;5110968;28;20037;-64
2023/04/07 02:22:47;;;;;;;31.05;13.63;;;;;;;;;;5111218;28;20027;-65
2023/04/07 02:25:29;;;;;;;24.63;11.85;;;;;;;;;;5111221;28;20071;-73
2023/04/07 02:27:56;;;;;;;29.80;14.73;;;;;;;;;;5111153;28;20055;-65
2023/04/07 02:30:22;;;;;;;30.48;13.40;;;;;;;;;;5110737;28;20066;-71
2023/04/07 02:32:47;;;;;;;29.95;13.75;;;;;;;;;;5111144;28;20047;-70
2023/04/07 02:35:14;;;;;;;29.85;12.77;;;;;;;;;;5110929;28;20092;-70
2023/04/07 02:37:39;;;;;;;31.00;12.75;;;;;;;;;;5111124;28;20031;-74
2023/04/07 02:40:05;;;;;;;23.98;12.40;;;;;;;;;;5110933;28;20024;-63
2023/04/07 02:42:31;;;;;;;29.58;13.27;;;;;;;;;;5110980;28;20039;-71
2023/04/07 02:44:56;;;;;;;24.45;12.02;;;;;;;;;;5110696;28;20038;-67
2023/04/07 02:47:22;;;;;;;21.50;9.07;;;;;;;;;;5110910;28;20480;-71
2023/04/07 02:49:47;;;;;;;16.50;8.95;;;;;;;;;;5110893;28;20031;-74
2023/04/07 02:52:13;;;;;;;13.85;7.22;;;;;;;;;;5110739;28;20103;-65
2023/04/07 02:54:38;;;;;;;12.05;6.70;;;;;;;;;;5110968;28;20395;-66
2023/04/07 02:57:04;;;;;;;12.52;5.72;;;;;;;;;;5110564;28;20020;-64
2023/04/07 02:59:29;;;;;;;12.05;6.03;;;;;;;;;;5110604;28;20110;-64
2023/04/07 03:01:55;;;;;;;14.00;6.40;;;;;;;;;;5110822;28;20031;-67
2023/04/07 03:04:21;;;;;;;15.65;7.80;;;;;;;;;;5110454;28;20460;-67
2023/04/07 03:06:46;;;;;;;11.25;5.65;;;;;;;;;;5110476;28;20459;-70
2023/04/07 03:09:12;;;;;;;10.30;5.10;;;;;;;;;;5110628;28;20034;-65
2023/04/07 03:11:37;;;;;;;8.90;5.00;;;;;;;;;;5110660;28;20016;-67
2023/04/07 03:14:03;;;;;;;12.43;4.70;;;;;;;;;;5110371;28;20482;-73
2023/04/07 03:16:28;;;;;;;8.93;4.50;;;;;;;;;;5110822;28;20027;-68
2023/04/07 03:18:54;;;;;;;12.27;5.15;;;;;;;;;;5110674;28;20034;-72
2023/04/07 03:21:19;;;;;;;7.57;4.70;;;;;;;;;;5110260;28;20028;-72
2023/04/07 03:23:45;;;;;;;9.52;4.70;;;;;;;;;;5110366;28;20515;-70
2023/04/07 03:26:10;;;;;;;13.30;4.80;;;;;;;;;;5109186;28;20462;-64
2023/04/07 03:28:36;;;;;;;10.10;5.13;;;;;;;;;;5110138;28;20039;-63
2023/04/07 03:31:01;;;;;;;12.20;4.43;;;;;;;;;;5110368;28;20074;-67
2023/04/07 03:33:27;;;;;;;14.57;4.85;;;;;;;;;;5110477;28;20446;-67
2023/04/07 03:35:52;;;;;;;10.90;4.80;;;;;;;;;;5110608;28;20027;-69
2023/04/07 03:38:17;;;;;;;11.07;4.90;;;;;;;;;;5110221;28;20062;-65
2023/04/07 03:40:43;;;;;;;14.40;5.35;;;;;;;;;;5110466;28;20164;-68
2023/04/07 03:43:12;;;;;;;12.02;4.60;;;;;;;;;;5109912;28;20149;-68
2023/04/07 03:45:38;;;;;;;9.48;4.70;;;;;;;;;;5110451;28;20028;-67
2023/04/07 03:48:04;;;;;;;9.45;4.28;;;;;;;;;;5110419;28;20024;-68
2023/04/07 03:50:29;;;;;;;9.32;4.40;;;;;;;;;;5110138;28;20023;-70
2023/04/07 03:52:55;;;;;;;9.23;4.38;;;;;;;;;;5110450;28;20032;-69
2023/04/07 03:55:21;;;;;;;10.05;4.38;;;;;;;;;;5110476;28;20038;-64
2023/04/07 03:57:48;;;;;;;8.57;4.45;;;;;;;;;;5112608;28;20053;-69
2023/04/07 04:00:13;;;;;;;16.10;5.75;;;;;;;;;;5112430;28;20032;-67
2023/04/07 04:02:39;;;;;;;11.23;5.07;;;;;;;;;;5113682;28;20019;-68
2023/04/07 04:05:05;;;;;;;9.18;4.75;;;;;;;;;;5113709;28;20059;-65
2023/04/07 04:07:32;;;;;;;8.02;4.60;;;;;;;;;;5113765;28;20077;-64
2023/04/07 04:09:57;;;;;;;10.10;4.93;;;;;;;;;;5113687;28;20031;-71
2023/04/07 04:12:23;;;;;;;11.25;5.25;;;;;;;;;;5113568;28;20034;-73
2023/04/07 04:14:48;;;;;;;12.55;5.35;;;;;;;;;;5112219;28;20023;-73
2023/04/07 04:17:14;;;;;;;11.43;4.88;;;;;;;;;;5113571;28;20036;-73
2023/04/07 04:19:39;;;;;;;9.73;4.53;;;;;;;;;;5113282;28;20031;-70
2023/04/07 04:22:05;;;;;;;6.95;4.28;;;;;;;;;;5113349;28;20016;-75
2023/04/07 04:24:30;;;;;;;8.73;4.57;;;;;;;;;;5113303;28;20394;-71
2023/04/07 04:26:56;;;;;;;11.85;4.88;;;;;;;;;;5113155;28;20027;-73
2023/04/07 04:29:21;;;;;;;7.85;3.95;;;;;;;;;;5113189;28;20059;-72
2023/04/07 04:31:46;;;;;;;7.32;4.38;;;;;;;;;;5113338;28;20523;-65
2023/04/07 04:34:12;;;;;;;9.52;3.90;;;;;;;;;;5113006;28;20103;-73
2023/04/07 04:36:39;;;;;;;8.63;4.55;;;;;;;;;;5113245;27;20055;-67
2023/04/07 04:39:04;;;;;;;6.65;4.10;;;;;;;;;;5113041;28;20114;-72
2023/04/07 04:41:30;;;;;;;12.05;4.40;;;;;;;;;;5112662;28;20107;-71
2023/04/07 04:43:55;;;;;;;10.95;4.32;;;;;;;;;;5112687;28;20024;-73
2023/04/07 04:46:21;;;;;;;7.00;3.70;;;;;;;;;;5112917;28;20039;-68
2023/04/07 04:48:46;;;;;;;8.77;4.13;;;;;;;;;;5112861;27;20051;-73
2023/04/07 04:51:11;;;;;;;9.35;3.88;;;;;;;;;;5112923;27;20039;-72
2023/04/07 04:53:37;;;;;;;12.85;4.30;;;;;;;;;;5112733;28;20054;-72
2023/04/07 04:56:02;;;;;;;7.75;3.83;;;;;;;;;;5112594;28;20033;-73
2023/04/07 04:58:28;;;;;;;6.93;3.97;;;;;;;;;;5112620;28;20076;-73
2023/04/07 05:00:57;;;;;;;5.75;3.53;;;;;;;;;;5112752;28;20092;-65
2023/04/07 05:03:24;;;;;;;9.52;4.35;;;;;;;;;;5112729;28;20024;-70
2023/04/07 05:05:50;;;;;;;7.15;3.95;;;;;;;;;;5112166;28;20052;-66
2023/04/07 05:08:15;;;;;;;8.23;3.92;;;;;;;;;;5111283;28;20031;-66
2023/04/07 05:10:41;;;;;;;6.28;3.60;;;;;;;;;;5112408;28;20015;-69
2023/04/07 05:13:06;;;;;;;7.38;3.88;;;;;;;;;;5112382;28;20073;-68
2023/04/07 05:15:32;;;;;;;7.20;3.92;;;;;;;;;;5112461;28;20397;-64
2023/04/07 05:17:57;;;;;;;7.82;4.30;;;;;;;;;;5112258;28;20076;-65
2023/04/07 05:20:22;;;;;;;10.30;4.20;;;;;;;;;;5112368;27;20031;-71
2023/04/07 05:22:48;;;;;;;7.90;4.18;;;;;;;;;;5112209;28;20092;-72
2023/04/07 05:25:13;;;;;;;9.38;4.28;;;;;;;;;;5112038;28;20417;-70
2023/04/07 05:27:39;;;;;;;10.93;4.35;;;;;;;;;;5110647;28;20381;-67
2023/04/07 05:30:05;;;;;;;9.18;4.07;;;;;;;;;;5112098;28;20089;-65
2023/04/07 05:32:31;;;;;;;7.72;4.47;;;;;;;;;;5112048;28;20035;-64
2023/04/07 05:34:56;;;;;;;7.63;4.80;;;;;;;;;;5112085;28;20106;-67
2023/04/07 05:37:22;;;;;;;7.95;4.43;;;;;;;;;;5112079;28;20019;-69
2023/04/07 05:39:47;;;;;;;10.07;4.65;;;;;;;;;;5111594;28;20378;-64
2023/04/07 05:42:13;;;;;;;6.03;4.03;;;;;;;;;;5111660;28;20145;-65
2023/04/07 05:44:38;;;;;;;8.70;4.63;;;;;;;;;;5111711;28;20035;-65
2023/04/07 05:47:07;;;;;;;7.78;4.80;;;;;;;;;;5111866;28;20035;-72
2023/04/07 05:49:34;;;;;;;9.05;4.90;;;;;;;;;;5111744;28;20039;-66
2023/04/07 05:51:59;;;;;;;10.70;5.50;;;;;;;;;;5111733;28;20045;-68
2023/04/07 05:54:25;;;;;;;8.30;4.65;;;;;;;;;;5111313;28;20549;-69
2023/04/07 05:56:50;;;;;;;9.43;4.93;;;;;;;;;;5111737;28;20038;-64
2023/04/07 05:59:16;;;;;;;8.70;4.75;;;;;;;;;;5111434;28;20474;-68
2023/04/07 06:01:41;;;;;;;7.85;4.78;;;;;;;;;;5111594;28;20035;-65
2023/04/07 06:04:07;;;;;;;6.72;4.57;;;;;;;;;;5110937;28;20026;-71
2023/04/07 06:06:32;;;;;;;9.38;5.25;;;;;;;;;;5111449;28;20028;-65
2023/04/07 06:08:58;;;;;;;7.35;4.65;;;;;;;;;;5111229;28;20055;-67
2023/04/07 06:11:26;;;;;;;8.25;4.78;;;;;;;;;;5111435;28;20028;-64
2023/04/07 06:13:51;;;;;;;6.57;4.35;;;;;;;;;;5111401;28;20035;-66
2023/04/07 06:16:16;;;;;;;10.82;4.85;;;;;;;;;;5111258;28;20591;-65
2023/04/07 06:18:42;;;;;;;9.63;5.10;;;;;;;;;;5111393;28;20035;-68
2023/04/07 06:21:08;;;;;;;8.63;4.72;;;;;;;;;;5111013;28;20103;-65
2023/04/07 06:23:33;;;;;;;10.35;5.18;;;;;;;;;;5111230;28;20435;-69
2023/04/07 06:25:59;;;;;;;9.02;5.07;;;;;;;;;;5111101;28;20111;-66
2023/04/07 06:28:24;;;;;;;9.65;5.28;;;;;;;;;;5109780;28;20371;-70
2023/04/07 06:30:50;;;;;;;11.85;5.90;;;;;;;;;;5111642;28;20031;-72
2023/04/07 06:33:15;;;;;;;9.90;5.80;;;;;;;;;;5111462;28;20102;-74
2023/04/07 06:35:42;;;;;;;11.65;6.07;;;;;;;;;;5111482;28;20035;-70
2023/04/07 06:38:07;;;;;;;9.15;5.18;;;;;;;;;;5111362;28;20015;-72
2023/04/07 06:40:33;;;;;;;16.00;6.53;;;;;;;;;;5111371;28;20451;-70
2023/04/07 06:42:58;;;;;;;15.98;6.72;;;;;;;;;;5110056;28;20367;-72
2023/04/07 06:45:24;;;;;;;12.23;5.90;;;;;;;;;;5111189;28;20036;-67
2023/04/07 06:47:50;;;;;;;15.45;6.75;;;;;;;;;;5109679;28;20019;-72
2023/04/07 06:50:19;;;;;;;12.07;6.78;;;;;;;;;;5110932;28;20024;-74
2023/04/07 06:52:45;;;;;;;13.55;5.78;;;;;;;;;;5111274;28;20042;-70
2023/04/07 06:55:10;;;;;;;13.93;6.57;;;;;;;;;;5111250;28;20015;-70
2023/04/07 06:57:35;;;;;;;21.13;8.85;;;;;;;;;;5109882;28;20024;-72
2023/04/07 07:00:01;;;;;;;65.30;20.60;;;;;;;;;;5110620;28;20089;-69
2023/04/07 07:02:26;;;;;;;32.55;12.40;;;;;;;;;;5107045;28;20028;-72
2023/04/07 07:04:52;;;;;;;23.10;10.88;;;;;;;;;;5112249;28;20064;-69
2023/04/07 07:07:17;;;;;;;22.08;8.73;;;;;;;;;;5110959;28;20034;-66
2023/04/07 07:09:42;;;;;;;16.52;8.30;;;;;;;;;;5112276;28;20108;-69
2023/04/07 07:12:08;;;;;;;15.18;6.43;;;;;;;;;;5111143;28;20523;-74
2023/04/07 07:14:33;;;;;;;15.27;7.82;;;;;;;;;;5112413;28;20019;-63
2023/04/07 07:16:59;;;;;;;18.77;7.82;;;;;;;;;;5112309;28;20031;-64
2023/04/07 07:19:24;;;;;;;14.65;7.43;;;;;;;;;;5112000;28;20019;-66
2023/04/07 07:21:50;;;;;;;15.52;7.05;;;;;;;;;;5112108;28;20029;-62
2023/04/07 07:24:15;;;;;;;14.18;7.80;;;;;;;;;;5112213;28;20019;-63
2023/04/07 07:26:41;;;;;;;14.55;6.60;;;;;;;;;;5112095;28;20023;-69
2023/04/07 07:29:06;;;;;;;11.48;6.78;;;;;;;;;;5098236;28;20493;-66
2023/04/07 07:31:31;;;;;;;13.43;7.28;;;;;;;;;;5112056;28;20030;-66
2023/04/07 07:33:57;;;;;;;12.30;6.90;;;;;;;;;;5115377;28;20019;-64
2023/04/07 07:36:22;;;;;;;14.75;7.78;;;;;;;;;;5115784;28;20539;-69
2023/04/07 07:38:50;;;;;;;16.75;7.60;;;;;;;;;;5115571;28;20019;-66
2023/04/07 07:41:16;;;;;;;14.77;8.00;;;;;;;;;;5113346;28;20124;-67
2023/04/07 07:43:41;;;;;;;15.55;8.90;;;;;;;;;;5115449;28;20114;-64
2023/04/07 07:46:07;;;;;;;14.45;7.80;;;;;;;;;;5116117;28;20022;-63
2023/04/07 07:48:32;;;;;;;16.92;7.95;;;;;;;;;;5115825;28;20084;-65
2023/04/07 07:50:58;;;;;;;15.40;8.43;;;;;;;;;;5115827;28;20080;-64
2023/04/07 07:53:23;;;;;;;19.08;8.73;;;;;;;;;;5115550;28;20023;-65
2023/04/07 07:55:49;;;;;;;17.10;8.88;;;;;;;;;;5115827;28;20020;-63
2023/04/07 07:58:14;;;;;;;16.63;9.25;;;;;;;;;;5115523;28;20378;-66
2023/04/07 08:00:40;;;;;;;16.08;8.27;;;;;;;;;;5115797;28;20099;-68
2023/04/07 08:03:06;;;;;;;15.57;8.63;;;;;;;;;;5115279;28;20031;-68
2023/04/07 08:05:31;;;;;;;15.95;8.00;;;;;;;;;;5115006;28;20439;-66
2023/04/07 08:07:57;;;;;;;13.85;7.45;;;;;;;;;;5115517;28;20024;-64
2023/04/07 08:10:23;;;;;;;16.45;8.82;;;;;;;;;;5114627;27;20034;-73
2023/04/07 08:12:49;;;;;;;15.00;7.60;;;;;;;;;;5114526;28;20024;-74
2023/04/07 08:15:15;;;;;;;15.25;8.73;;;;;;;;;;5115496;28;20035;-73
2023/04/07 08:17:41;;;;;;;14.07;8.52;;;;;;;;;;5114405;28;20355;-63
2023/04/07 08:20:07;;;;;;;14.75;8.98;;;;;;;;;;5115368;28;20028;-66
2023/04/07 08:22:32;;;;;;;16.25;9.43;;;;;;;;;;5105843;28;20474;-64
2023/04/07 08:24:58;;;;;;;18.85;8.98;;;;;;;;;;5097618;28;20031;-66
2023/04/07 08:27:24;;;;;;;17.67;9.15;;;;;;;;;;5094420;28;20032;-67
2023/04/07 08:29:59;;;;;;;15.00;9.15;;;;;;;;;;5093473;28;20028;-67
2023/04/07 08:32:24;;;;;;;16.38;9.52;;;;;;;;;;5094302;28;20028;-74
2023/04/07 08:34:50;;;;;;;15.00;8.65;;;;;;;;;;5094756;28;20024;-66
2023/04/07 08:37:15;;;;;;;13.30;8.60;;;;;;;;;;5094444;28;20020;-69
2023/04/07 08:39:41;;;;;;;15.40;8.02;;;;;;;;;;5094496;28;20470;-67
2023/04/07 08:42:07;;;;;;;14.90;8.40;;;;;;;;;;5094390;28;20348;-66
2023/04/07 08:44:35;;;;;;;16.30;8.07;;;;;;;;;;5094384;28;20024;-72
2023/04/07 08:47:06;;;;;;;13.13;7.38;;;;;;;;;;5093920;28;20020;-69
2023/04/07 08:49:32;;;;;;;;;;;;;;;;;;5094834;28;20399;-68
2023/04/07 08:51:59;;;;;;;14.75;7.10;;;;;;;;;;5094236;28;19912;-65
2023/04/07 08:54:24;;;;;;;16.73;8.27;;;;;;;;;;5094242;28;20028;-63
2023/04/07 08:56:50;;;;;;;14.00;7.82;;;;;;;;;;5100622;28;20022;-66
2023/04/07 08:59:24;;;;;;;11.90;7.22;;;;;;;;;;5114372;27;20039;-64
2023/04/07 09:01:50;;;;;;;13.13;7.85;;;;;;;;;;5114345;27;20058;-66
2023/04/07 09:04:16;;;;;;;15.35;7.60;;;;;;;;;;5114295;28;20512;-71
2023/04/07 09:06:42;;;;;;;15.38;8.93;;;;;;;;;;5114687;28;20032;-69
2023/04/07 09:09:08;;;;;;;12.25;7.38;;;;;;;;;;5114036;28;20028;-74
2023/04/07 09:11:38;;;;;;;12.93;8.43;;;;;;;;;;5114274;28;20077;-73
2023/04/07 09:14:04;;;;;;;17.42;9.68;;;;;;;;;;5114277;27;20084;-70
2023/04/07 09:16:30;;;;;;;16.55;9.00;;;;;;;;;;5113820;28;20019;-69
2023/04/07 09:18:56;;;;;;;15.02;8.82;;;;;;;;;;5113987;28;20478;-73
2023/04/07 09:21:22;;;;;;;18.95;10.25;;;;;;;;;;5114076;28;20059;-68
2023/04/07 09:23:48;;;;;;;12.15;7.45;;;;;;;;;;5113936;28;20475;-75
2023/04/07 09:26:16;;;;;;;15.75;8.02;;;;;;;;;;5113992;28;20466;-63
2023/04/07 09:28:47;;;;;;;12.63;8.27;;;;;;;;;;5113854;28;20039;-73
2023/04/07 09:31:12;;;;;;;19.45;9.27;;;;;;;;;;5113329;28;20028;-71
2023/04/07 09:33:38;;;;;;;15.25;9.13;;;;;;;;;;5113613;28;20111;-68
2023/04/07 09:36:07;;;;;;;14.70;9.27;;;;;;;;;;5113782;28;20027;-73
2023/04/07 09:38:34;;;;;;;19.52;9.38;;;;;;;;;;5112748;28;20489;-72
2023/04/07 09:41:12;;;;;;;15.23;8.57;;;;;;;;;;5113399;28;20055;-63
2023/04/07 09:43:45;;;;;;;19.13;8.38;;;;;;;;;;5113227;28;20042;-62
2023/04/07 09:46:17;;;;;;;14.35;8.02;;;;;;;;;;5112220;28;20024;-65
2023/04/07 09:48:44;;;;;;;14.98;8.13;;;;;;;;;;5113340;28;20034;-67
2023/04/07 09:51:12;;;;;;;16.60;7.60;;;;;;;;;;5113394;28;20084;-66
2023/04/07 09:53:42;;;;;;;14.40;7.88;;;;;;;;;;5112928;28;20030;-63
2023/04/07 09:56:11;;;;;;;12.13;7.20;;;;;;;;;;5113167;28;20019;-74
2023/04/07 09:58:39;;;;;;;13.52;7.43;;;;;;;;;;5099131;28;20115;-69
2023/04/07 10:01:07;;;;;;;14.48;7.78;;;;;;;;;;5092706;28;20027;-62
2023/04/07 10:03:33;;;;;;;14.93;8.02;;;;;;;;;;5092809;28;20024;-67
2023/04/07 10:06:00;;;;;;;16.77;9.02;;;;;;;;;;5095810;28;20043;-67
2023/04/07 10:08:26;;;;;;;14.63;7.90;;;;;;;;;;5113089;28;20098;-68
2023/04/07 10:10:53;;;;;;;11.38;7.30;;;;;;;;;;5113111;28;20082;-63
2023/04/07 10:13:20;;;;;;;11.88;7.20;;;;;;;;;;5112607;28;20023;-63
2023/04/07 10:15:46;;;;;;;12.40;7.40;;;;;;;;;;5112783;28;20039;-68
2023/04/07 10:18:13;;;;;;;12.80;7.43;;;;;;;;;;5112876;28;20100;-68
2023/04/07 10:20:42;;;;;;;10.85;5.75;;;;;;;;;;5112923;28;20031;-64
2023/04/07 10:23:33;;;;;;;11.85;6.20;;;;;;;;;;5112677;28;20019;-65
2023/04/07 10:26:01;;;;;;;13.30;6.75;;;;;;;;;;5112553;27;20024;-64
2023/04/07 10:28:29;;;;;;;12.63;7.15;;;;;;;;;;5112355;28;20504;-64
2023/04/07 10:30:55;;;;;;;10.00;6.43;;;;;;;;;;5112637;28;20046;-63
2023/04/07 10:33:49;;;;;;;11.50;6.80;;;;;;;;;;5111697;28;20028;-66
2023/04/07 10:36:17;;;;;;;12.48;5.90;;;;;;;;;;5111308;28;20378;-68
2023/04/07 10:39:08;;;;;;;14.27;7.32;;;;;;;;;;5109631;28;20399;-65
2023/04/07 10:41:35;;;;;;;15.57;8.55;;;;;;;;;;5112282;28;20024;-66
2023/04/07 10:44:01;;;;;;;16.63;9.13;;;;;;;;;;5112296;28;20020;-64
2023/04/07 10:46:47;;;;;;;17.42;8.48;;;;;;;;;;5112217;28;20030;-64
2023/04/07 10:49:15;;;;;;;13.27;7.68;;;;;;;;;;5112348;28;20040;-67
2023/04/07 10:51:41;;;;;;;13.68;7.65;;;;;;;;;;5111898;28;20024;-63
2023/04/07 10:54:21;;;;;;;10.88;6.97;;;;;;;;;;5112494;28;20030;-68
2023/04/07 10:57:01;;;;;;;11.32;7.15;;;;;;;;;;5111758;28;20051;-65
2023/04/07 10:59:31;;;;;;;;;;;;;;;;;;5090878;28;20024;-63
2023/04/07 11:02:11;;;;;;;8.88;5.85;;;;;;;;;;5091618;28;20005;-65
2023/04/07 11:04:37;;;;;;;;;;;;;;;;;;5090653;28;20098;-70
2023/04/07 11:07:02;;;;;;;10.38;6.65;;;;;;;;;;5091993;28;19916;-68
2023/04/07 11:09:28;;;;;;;10.93;6.43;;;;;;;;;;5095499;28;20051;-64
2023/04/07 11:11:53;;;;;;;9.60;6.43;;;;;;;;;;5095424;28;20490;-63
2023/04/07 11:14:29;;;;;;;12.05;7.03;;;;;;;;;;5095624;28;20036;-66
2023/04/07 11:16:55;;;;;;;12.90;5.70;;;;;;;;;;5095812;28;20150;-72
2023/04/07 11:19:21;;;;;;;9.85;6.55;;;;;;;;;;5096011;28;20027;-63
2023/04/07 11:21:47;;;;;;;11.60;6.47;;;;;;;;;;5095938;28;20024;-63
2023/04/07 11:24:36;;;;;;;11.07;6.50;;;;;;;;;;5094860;28;20020;-69
2023/04/07 11:27:02;;;;;;;10.18;6.43;;;;;;;;;;5095592;28;20111;-63
2023/04/07 11:29:31;;;;;;;9.52;5.63;;;;;;;;;;5095773;28;20112;-64
2023/04/07 11:31:58;;;;;;;9.93;6.07;;;;;;;;;;5095769;28;20028;-73
2023/04/07 11:34:36;;;;;;;12.55;6.82;;;;;;;;;;5095963;28;20078;-75
2023/04/07 11:37:22;;;;;;;11.55;5.93;;;;;;;;;;5095548;28;20067;-64
2023/04/07 11:39:57;;;;;;;10.93;6.13;;;;;;;;;;5095670;28;20032;-64
2023/04/07 11:42:39;;;;;;;9.27;5.57;;;;;;;;;;5098166;28;20064;-64
2023/04/07 11:45:14;;;;;;;8.85;5.90;;;;;;;;;;5114946;28;20116;-70
2023/04/07 11:47:40;;;;;;;10.95;5.95;;;;;;;;;;5115777;28;20390;-75
2023/04/07 11:50:06;;;;;;;7.75;5.32;;;;;;;;;;5115785;28;20031;-64
2023/04/07 11:52:41;;;;;;;7.15;5.22;;;;;;;;;;5111673;28;20088;-63
2023/04/07 11:55:20;;;;;;;9.07;5.72;;;;;;;;;;5115207;28;20027;-65
2023/04/07 11:57:46;;;;;;;9.57;4.53;;;;;;;;;;5108357;28;20085;-66
2023/04/07 12:00:14;;;;;;;8.45;5.65;;;;;;;;;;5112652;28;20096;-67
2023/04/07 12:02:40;;;;;;;6.82;4.28;;;;;;;;;;5115472;28;20039;-74
2023/04/07 12:05:06;;;;;;;11.02;6.18;;;;;;;;;;5113994;28;20052;-67
2023/04/07 12:07:32;;;;;;;11.30;5.65;;;;;;;;;;5114966;28;20106;-76
2023/04/07 12:09:57;;;;;;;11.95;6.72;;;;;;;;;;5114432;28;20115;-71
2023/04/07 12:12:27;;;;;;;10.50;5.95;;;;;;;;;;5114570;28;20034;-76
2023/04/07 12:14:54;;;;;;;13.20;7.38;;;;;;;;;;5114265;27;20024;-68
2023/04/07 12:17:25;;;;;;;9.95;6.18;;;;;;;;;;5114113;28;20058;-72
2023/04/07 12:19:51;;;;;;;9.85;6.95;;;;;;;;;;5114433;28;20020;-72
2023/04/07 12:22:16;;;;;;;9.50;7.18;;;;;;;;;;5111659;28;20068;-67
2023/04/07 12:24:42;;;;;;;10.13;6.93;;;;;;;;;;5114775;28;20023;-74
2023/04/07 12:27:07;;;;;;;10.82;6.10;;;;;;;;;;5115029;28;20023;-70
2023/04/07 12:29:33;;;;;;;9.18;6.47;;;;;;;;;;5115078;28;20039;-72
2023/04/07 12:31:59;;;;;;;9.55;5.90;;;;;;;;;;5114981;28;20027;-64
2023/04/07 12:34:26;;;;;;;8.10;5.25;;;;;;;;;;5114751;28;20534;-63
2023/04/07 12:36:51;;;;;;;7.47;4.95;;;;;;;;;;5114881;28;20110;-72
2023/04/07 12:39:17;;;;;;;9.68;5.90;;;;;;;;;;5114302;28;20055;-63
2023/04/07 12:41:47;;;;;;;8.55;5.47;;;;;;;;;;5114883;28;20538;-71
2023/04/07 12:44:13;;;;;;;8.10;4.90;;;;;;;;;;5114805;28;20027;-63
2023/04/07 12:46:39;;;;;;;7.07;4.47;;;;;;;;;;5114552;28;20432;-64
2023/04/07 12:49:04;;;;;;;7.20;4.93;;;;;;;;;;5114428;28;20126;-69
2023/04/07 12:51:32;;;;;;;10.20;7.05;;;;;;;;;;5114922;28;20028;-74
2023/04/07 12:53:59;;;;;;;15.35;9.63;;;;;;;;;;5114335;28;20042;-72
2023/04/07 12:56:25;;;;;;;9.10;5.82;;;;;;;;;;5113513;28;20036;-75
2023/04/07 12:58:52;;;;;;;8.48;4.38;;;;;;;;;;5098710;28;20039;-66
2023/04/07 13:01:17;;;;;;;7.43;5.30;;;;;;;;;;5093613;28;20447;-75
2023/04/07 13:03:43;;;;;;;9.88;6.18;;;;;;;;;;5094118;28;20190;-64
2023/04/07 13:06:09;;;;;;;8.98;6.65;;;;;;;;;;5093620;28;20391;-70
2023/04/07 13:08:35;;;;;;;9.55;6.00;;;;;;;;;;5093431;28;20032;-62
2023/04/07 13:11:01;;;;;;;14.10;9.07;;;;;;;;;;5093650;28;20028;-64
2023/04/07 13:13:26;;;;;;;13.63;10.80;;;;;;;;;;5093723;28;20027;-71
2023/04/07 13:15:52;;;;;;;9.85;7.00;;;;;;;;;;5093820;28;20032;-62
2023/04/07 13:18:17;;;;;;;10.52;6.70;;;;;;;;;;5093162;28;20020;-63
2023/04/07 13:20:43;;;;;;;13.23;8.38;;;;;;;;;;5093372;28;20028;-67
2023/04/07 13:23:08;;;;;;;12.48;7.95;;;;;;;;;;5093162;28;20374;-62
2023/04/07 13:25:34;;;;;;;12.48;7.95;;;;;;;;;;5093319;28;20020;-69
2023/04/07 13:27:59;;;;;;;13.48;8.90;;;;;;;;;;5093314;28;20020;-63
2023/04/07 13:30:25;;;;;;;14.13;9.00;;;;;;;;;;5091891;28;20028;-67
2023/04/07 13:32:50;;;;;;;14.07;8.52;;;;;;;;;;5093280;28;20020;-65
2023/04/07 13:35:17;;;;;;;15.23;8.45;;;;;;;;;;5093241;28;20024;-65
2023/04/07 13:37:43;;;;;;;13.05;7.93;;;;;;;;;;5091744;28;20035;-65
2023/04/07 13:40:11;;;;;;;12.18;8.07;;;;;;;;;;5092961;28;20122;-64
2023/04/07 13:42:37;;;;;;;15.50;9.68;;;;;;;;;;5092762;28;20031;-62
2023/04/07 13:45:02;;;;;;;13.15;9.57;;;;;;;;;;5092866;28;20470;-69
2023/04/07 13:47:32;;;;;;;10.73;7.88;;;;;;;;;;5098144;28;20024;-63
2023/04/07 13:49:58;;;;;;;12.23;8.98;;;;;;;;;;5113291;28;20130;-69
2023/04/07 13:52:23;;;;;;;15.55;9.38;;;;;;;;;;5112762;28;20437;-66
2023/04/07 13:54:49;;;;;;;15.18;10.40;;;;;;;;;;5113287;28;20106;-65
2023/04/07 13:57:19;;;;;;;15.55;9.77;;;;;;;;;;5112862;28;20026;-65
2023/04/07 13:59:48;;;;;;;18.27;11.10;;;;;;;;;;5112082;28;20378;-69
2023/04/07 14:02:14;;;;;;;31.88;15.00;;;;;;;;;;5112963;28;20264;-73
2023/04/07 14:04:39;;;;;;;30.77;16.58;;;;;;;;;;5113182;28;20038;-72
2023/04/07 14:07:05;;;;;;;90.43;31.60;;;;;;;;;;5112558;28;20092;-74
2023/04/07 14:09:31;;;;;;;42.70;20.90;;;;;;;;;;5112339;28;20030;-74
2023/04/07 14:11:56;;;;;;;48.10;20.25;;;;;;;;;;5112642;28;20093;-71
2023/04/07 14:14:22;;;;;;;52.10;21.17;;;;;;;;;;5112660;28;20019;-66
2023/04/07 14:16:51;;;;;;;39.03;19.90;;;;;;;;;;5112603;28;20032;-73
2023/04/07 14:19:19;;;;;;;21.88;11.63;;;;;;;;;;5112379;28;20035;-72
2023/04/07 14:21:45;;;;;;;21.02;13.00;;;;;;;;;;5112590;28;20381;-73
2023/04/07 14:24:10;;;;;;;16.13;9.48;;;;;;;;;;5112447;28;20024;-67
2023/04/07 14:26:35;;;;;;;22.48;13.35;;;;;;;;;;5113025;28;20045;-74
2023/04/07 14:29:01;;;;;;;14.43;9.98;;;;;;;;;;5112456;28;20077;-71
2023/04/07 14:31:27;;;;;;;12.18;8.30;;;;;;;;;;5112905;28;20015;-74